Time;durP1;ratioP1;P1;durP2;ratioP2;P2;SDS_P1;SDS_P2;PMS_P1;PMS_P2;Temp;Humidity;BMP_temperature;BMP_pressure;BME280_temperature;BME280_humidity;BME280_pressure;Samples;Min_cycle;Max_cycle;Signal;HPM_P1;HPM_P2
2021/01/12 00:02:05;;;;;;;8.48;5.45;;;-6.70;69.60;;;;;;5165142;28;20049;-76
2021/01/12 00:04:40;;;;;;;11.27;6.93;;;-6.70;70.60;;;;;;5164062;28;20117;-74
2021/01/12 00:07:13;;;;;;;11.73;7.18;;;-6.70;70.80;;;;;;5165674;28;20049;-75
2021/01/12 00:09:44;;;;;;;9.88;6.13;;;-6.80;70.70;;;;;;5154063;28;20054;-75
2021/01/12 00:12:19;;;;;;;9.75;5.72;;;-6.70;70.80;;;;;;5163871;28;20065;-76
2021/01/12 00:14:51;;;;;;;10.60;6.22;;;-6.80;70.90;;;;;;5166405;28;20050;-76
2021/01/12 00:17:22;;;;;;;11.27;6.78;;;-6.70;70.60;;;;;;5165050;28;21021;-76
2021/01/12 00:19:54;;;;;;;12.15;7.07;;;-6.80;70.30;;;;;;5163929;28;20050;-76
2021/01/12 00:22:25;;;;;;;13.43;7.05;;;-6.80;70.30;;;;;;5147574;28;20077;-76
2021/01/12 00:24:57;;;;;;;11.80;6.70;;;-6.80;70.50;;;;;;5152920;28;20157;-76
2021/01/12 00:27:28;;;;;;;12.52;7.78;;;-6.80;70.60;;;;;;5162896;28;20199;-76
2021/01/12 00:30:00;;;;;;;12.57;6.80;;;-6.80;70.90;;;;;;5159026;28;20049;-76
2021/01/12 00:32:32;;;;;;;11.25;7.10;;;-6.80;70.10;;;;;;5155690;28;20049;-76
2021/01/12 00:35:04;;;;;;;12.45;7.50;;;-6.80;70.20;;;;;;5166507;28;20554;-77
2021/01/12 00:37:36;;;;;;;11.35;6.47;;;-6.80;70.00;;;;;;5165041;28;20042;-76
2021/01/12 00:40:08;;;;;;;11.63;6.88;;;-6.80;70.00;;;;;;5161098;28;20047;-75
2021/01/12 00:42:40;;;;;;;11.13;7.20;;;-6.90;70.10;;;;;;5162966;28;20053;-75
2021/01/12 00:45:13;;;;;;;10.80;6.80;;;-6.90;69.90;;;;;;5145863;28;20042;-76
2021/01/12 00:47:44;;;;;;;10.93;7.15;;;-6.90;69.60;;;;;;5166843;28;20474;-75
2021/01/12 00:50:16;;;;;;;9.38;6.40;;;-6.90;69.50;;;;;;5159235;28;20042;-76
2021/01/12 00:52:47;;;;;;;10.02;6.43;;;-7.00;69.60;;;;;;5164407;28;20065;-76
2021/01/12 00:55:19;;;;;;;10.77;6.25;;;-7.10;69.80;;;;;;5166098;28;20120;-76
2021/01/12 00:57:50;;;;;;;10.23;6.55;;;-7.10;70.00;;;;;;5144370;28;20038;-75
2021/01/12 01:00:22;;;;;;;10.02;6.10;;;-7.10;69.80;;;;;;5163348;28;20053;-75
2021/01/12 01:02:56;;;;;;;9.20;5.90;;;-7.10;70.30;;;;;;5147834;28;20058;-75
2021/01/12 01:05:27;;;;;;;11.10;5.90;;;-7.10;70.40;;;;;;5166296;28;20046;-75
2021/01/12 01:08:00;;;;;;;7.57;6.03;;;-7.20;70.50;;;;;;5150165;28;20053;-75
2021/01/12 01:10:31;;;;;;;6.93;4.78;;;-7.20;70.80;;;;;;5167666;28;20045;-77
2021/01/12 01:13:03;;;;;;;6.00;4.50;;;-7.10;71.70;;;;;;5172673;28;20321;-76
2021/01/12 01:15:35;;;;;;;7.63;5.10;;;-7.10;72.80;;;;;;5172456;28;20045;-75
2021/01/12 01:18:06;;;;;;;8.18;5.28;;;-7.10;72.90;;;;;;5171378;28;20558;-75
2021/01/12 01:20:37;;;;;;;9.65;5.93;;;-7.00;72.00;;;;;;5142354;28;20061;-74
2021/01/12 01:23:09;;;;;;;9.32;5.85;;;-7.00;71.20;;;;;;5166703;28;20471;-75
2021/01/12 01:25:40;;;;;;;11.18;7.50;;;-7.00;71.10;;;;;;5165758;28;20081;-74
2021/01/12 01:28:12;;;;;;;10.55;6.30;;;-6.90;70.90;;;;;;5151821;28;20046;-74
2021/01/12 01:30:44;;;;;;;11.82;6.82;;;-6.90;70.60;;;;;;5166027;28;20042;-75
2021/01/12 01:33:15;;;;;;;9.95;6.10;;;-6.80;70.20;;;;;;5169289;28;20050;-75
2021/01/12 01:35:47;;;;;;;12.02;6.95;;;-6.80;70.10;;;;;;5151843;28;20058;-76
2021/01/12 01:38:19;;;;;;;10.05;6.78;;;-6.90;71.00;;;;;;5166172;28;20157;-76
2021/01/12 01:40:50;;;;;;;10.85;6.68;;;-6.90;70.40;;;;;;5161848;28;20126;-75
2021/01/12 01:43:22;;;;;;;9.15;5.93;;;-6.90;70.50;;;;;;5171209;28;20493;-75
2021/01/12 01:45:53;;;;;;;10.23;6.30;;;-6.90;70.60;;;;;;5149955;28;20061;-74
2021/01/12 01:48:25;;;;;;;12.57;6.95;;;-6.80;70.60;;;;;;5164433;28;20137;-75
2021/01/12 01:51:00;;;;;;;11.45;7.10;;;-6.80;70.70;;;;;;5165486;28;20054;-75
2021/01/12 01:53:35;;;;;;;11.10;6.80;;;-6.90;70.80;;;;;;5170864;28;20421;-75
2021/01/12 01:56:08;;;;;;;11.65;6.53;;;-6.90;70.90;;;;;;5167231;28;20042;-75
2021/01/12 01:58:40;;;;;;;11.10;7.13;;;-6.80;71.30;;;;;;5165606;28;20390;-74
2021/01/12 02:01:12;;;;;;;11.93;6.50;;;-6.80;70.90;;;;;;5157898;28;20145;-76
2021/01/12 02:04:30;;;;;;;11.23;6.68;;;-6.80;71.40;;;;;;5167469;28;20048;-75
2021/01/12 02:07:03;;;;;;;;;;;-6.80;71.40;;;;;;5158346;28;20046;-75
2021/01/12 02:10:01;;;;;;;9.13;6.00;;;-6.80;72.20;;;;;;5146711;28;19956;-76
2021/01/12 02:12:45;;;;;;;8.05;5.78;;;-6.70;72.00;;;;;;5164442;28;20046;-75
2021/01/12 02:15:20;;;;;;;9.60;5.57;;;-6.70;71.90;;;;;;5145034;28;20156;-74
2021/01/12 02:17:53;;;;;;;8.00;5.43;;;-6.60;71.80;;;;;;5164660;28;20097;-75
2021/01/12 02:20:28;;;;;;;8.60;5.60;;;-6.70;71.90;;;;;;5164973;28;20052;-73
2021/01/12 02:23:07;;;;;;;7.13;5.47;;;-6.70;72.30;;;;;;5155335;28;20525;-75
2021/01/12 02:25:39;;;;;;;7.60;5.75;;;-6.60;72.80;;;;;;5153101;28;20058;-75
2021/01/12 02:28:17;;;;;;;7.57;4.75;;;-6.60;72.50;;;;;;5131362;28;20050;-74
2021/01/12 02:30:49;;;;;;;8.75;5.18;;;-6.60;72.50;;;;;;5165789;28;20042;-74
2021/01/12 02:33:20;;;;;;;7.72;5.40;;;-6.60;71.80;;;;;;5164772;28;20046;-75
2021/01/12 02:35:54;;;;;;;8.85;5.10;;;-6.60;71.80;;;;;;5164372;28;20831;-75
2021/01/12 02:38:26;;;;;;;8.75;5.63;;;-6.60;71.30;;;;;;5146795;28;20054;-75
2021/01/12 02:41:14;;;;;;;7.95;6.03;;;-6.60;70.60;;;;;;5162630;28;20054;-74
2021/01/12 02:43:47;;;;;;;9.90;5.80;;;-6.60;70.00;;;;;;5148682;28;20617;-76
2021/01/12 02:46:18;;;;;;;10.50;5.55;;;-6.60;69.90;;;;;;5162967;28;20113;-76
2021/01/12 02:48:50;;;;;;;7.53;5.68;;;-6.60;69.80;;;;;;5166268;28;20145;-74
2021/01/12 02:51:22;;;;;;;7.90;5.50;;;-6.60;69.70;;;;;;5165108;28;20632;-76
2021/01/12 02:53:53;;;;;;;8.63;6.32;;;-6.60;69.50;;;;;;5165733;28;20054;-75
2021/01/12 02:56:24;;;;;;;10.18;6.60;;;-6.60;69.40;;;;;;5164284;28;20042;-75
2021/01/12 02:58:56;;;;;;;9.75;5.50;;;-6.60;69.30;;;;;;5165428;28;20057;-76
2021/01/12 03:01:27;;;;;;;8.30;5.53;;;-6.60;69.50;;;;;;5166115;28;20058;-76
2021/01/12 03:03:59;;;;;;;9.43;5.85;;;-6.60;69.70;;;;;;5165395;28;20046;-77
2021/01/12 03:06:30;;;;;;;8.85;5.93;;;-6.60;69.40;;;;;;5157909;28;20045;-77
2021/01/12 03:09:03;;;;;;;8.73;6.47;;;-6.60;69.30;;;;;;5164432;28;20569;-75
2021/01/12 03:11:35;;;;;;;9.45;6.57;;;-6.60;69.30;;;;;;5165211;28;20677;-75
2021/01/12 03:14:06;;;;;;;11.60;6.20;;;-6.60;69.10;;;;;;5167495;28;20046;-75
2021/01/12 03:16:38;;;;;;;10.55;6.63;;;-6.60;69.00;;;;;;5151640;28;20050;-75
2021/01/12 03:19:10;;;;;;;10.38;6.00;;;-6.60;68.90;;;;;;5148977;28;20053;-75
2021/01/12 03:21:41;;;;;;;8.52;5.55;;;-6.70;69.00;;;;;;5155262;28;20061;-75
2021/01/12 03:24:13;;;;;;;8.48;6.38;;;-6.70;69.50;;;;;;5170268;28;20562;-75
2021/01/12 03:26:44;;;;;;;9.50;6.05;;;-6.70;69.70;;;;;;5151877;28;20072;-76
2021/01/12 03:29:15;;;;;;;10.48;6.32;;;-6.70;69.90;;;;;;5152250;28;20050;-74
2021/01/12 03:31:47;;;;;;;8.98;6.00;;;-6.70;69.90;;;;;;5164488;28;20200;-74
2021/01/12 03:34:18;;;;;;;8.00;6.05;;;-6.60;69.70;;;;;;5152373;28;20045;-75
2021/01/12 03:36:50;;;;;;;8.60;6.20;;;-6.60;69.90;;;;;;5153704;28;20119;-75
2021/01/12 03:39:22;;;;;;;10.68;6.38;;;-6.60;69.70;;;;;;5164475;28;20050;-74
2021/01/12 03:41:53;;;;;;;11.38;7.03;;;-6.60;69.60;;;;;;5162264;28;20054;-75
2021/01/12 03:44:25;;;;;;;9.65;6.55;;;-6.50;70.20;;;;;;5165227;28;20045;-75
2021/01/12 03:46:56;;;;;;;9.70;6.95;;;-6.60;70.00;;;;;;5146568;28;20058;-74
2021/01/12 03:49:28;;;;;;;11.82;7.50;;;-6.70;71.10;;;;;;5163004;28;20042;-75
2021/01/12 03:51:59;;;;;;;9.68;6.57;;;-6.70;71.80;;;;;;5162259;28;20050;-75
2021/01/12 03:54:31;;;;;;;10.30;6.53;;;-6.70;71.60;;;;;;5163540;28;20662;-74
2021/01/12 03:57:02;;;;;;;7.10;4.90;;;-6.60;71.50;;;;;;5162433;28;20050;-75
2021/01/12 03:59:34;;;;;;;10.18;6.00;;;-6.60;71.70;;;;;;5147404;28;20148;-75
2021/01/12 04:02:06;;;;;;;12.32;7.95;;;-6.50;71.00;;;;;;5162241;28;20292;-75
2021/01/12 04:04:37;;;;;;;10.25;6.72;;;-6.60;70.80;;;;;;5166113;28;20042;-75
2021/01/12 04:07:09;;;;;;;9.82;6.38;;;-6.50;70.60;;;;;;5163271;28;20133;-75
2021/01/12 04:09:40;;;;;;;10.05;6.43;;;-6.50;71.20;;;;;;5164591;28;20077;-74
2021/01/12 04:12:12;;;;;;;10.07;6.53;;;-6.60;70.40;;;;;;5165451;28;20050;-76
2021/01/12 04:14:43;;;;;;;7.93;5.20;;;-6.60;71.00;;;;;;5165385;28;20573;-75
2021/01/12 04:17:15;;;;;;;6.88;4.70;;;-6.70;70.40;;;;;;5163884;28;20038;-75
2021/01/12 04:19:46;;;;;;;7.18;4.68;;;-6.80;71.10;;;;;;5164140;28;20038;-75
2021/01/12 04:22:17;;;;;;;7.03;4.50;;;-6.80;71.60;;;;;;5162549;28;20049;-75
2021/01/12 04:24:49;;;;;;;7.00;4.95;;;-6.70;70.20;;;;;;5149287;28;20069;-75
2021/01/12 04:27:21;;;;;;;7.65;5.43;;;-6.70;70.60;;;;;;5146890;28;20598;-75
2021/01/12 04:29:52;;;;;;;10.18;5.70;;;-6.60;71.20;;;;;;5143410;28;20089;-76
2021/01/12 04:32:24;;;;;;;7.22;5.40;;;-6.60;70.40;;;;;;5143837;28;20094;-75
2021/01/12 04:34:55;;;;;;;9.13;5.95;;;-6.60;70.30;;;;;;5157728;28;20046;-75
2021/01/12 04:37:27;;;;;;;8.40;5.38;;;-6.50;70.40;;;;;;5140868;28;20039;-76
2021/01/12 04:39:58;;;;;;;7.57;5.05;;;-6.50;70.20;;;;;;5141670;28;20046;-74
2021/01/12 04:42:32;;;;;;;7.07;5.03;;;-6.50;70.10;;;;;;5157969;28;20104;-76
2021/01/12 04:45:05;;;;;;;6.78;5.10;;;-6.50;69.90;;;;;;5161574;28;20077;-76
2021/01/12 04:47:37;;;;;;;8.00;5.18;;;-6.50;69.90;;;;;;5167185;28;20050;-75
2021/01/12 04:50:09;;;;;;;7.43;5.55;;;-6.50;69.90;;;;;;5166584;28;20523;-76
2021/01/12 04:52:52;;;;;;;7.72;5.38;;;-6.50;69.80;;;;;;5153020;28;20105;-75
2021/01/12 04:55:23;;;;;;;7.55;5.55;;;-6.50;69.90;;;;;;5163717;28;20850;-75
2021/01/12 04:57:55;;;;;;;14.20;6.40;;;-6.50;70.20;;;;;;5164034;28;20523;-75
2021/01/12 05:00:32;;;;;;;8.55;5.95;;;-6.50;69.90;;;;;;5167502;28;20047;-76
2021/01/12 05:03:08;;;;;;;8.50;5.88;;;-6.50;69.90;;;;;;5167696;28;20057;-75
2021/01/12 05:05:42;;;;;;;7.57;5.55;;;-6.50;70.10;;;;;;5166751;28;20419;-74
2021/01/12 05:08:15;;;;;;;7.10;5.07;;;-6.50;70.10;;;;;;5166680;28;20217;-74
2021/01/12 05:10:49;;;;;;;8.20;5.60;;;-6.50;70.10;;;;;;5165560;28;20050;-75
2021/01/12 05:13:26;;;;;;;8.80;5.72;;;-6.50;70.10;;;;;;5164884;28;20046;-75
2021/01/12 05:15:57;;;;;;;8.68;6.00;;;-6.50;70.00;;;;;;5169813;28;20050;-75
2021/01/12 05:18:32;;;;;;;7.85;5.60;;;-6.40;69.80;;;;;;5165531;28;20046;-76
2021/01/12 05:21:06;;;;;;;10.95;6.38;;;-6.40;69.60;;;;;;5156400;28;20152;-76
2021/01/12 05:24:05;;;;;;;7.88;5.63;;;-6.50;69.40;;;;;;5153430;28;20042;-75
2021/01/12 05:26:38;;;;;;;9.50;6.00;;;-6.60;69.80;;;;;;5153120;28;20158;-75
2021/01/12 05:29:09;;;;;;;8.23;5.80;;;-6.60;69.90;;;;;;5168874;28;20646;-75
2021/01/12 05:31:47;;;;;;;8.80;5.88;;;-6.60;69.70;;;;;;5167321;28;20833;-75
2021/01/12 05:34:20;;;;;;;7.95;5.78;;;-6.50;69.90;;;;;;5149090;28;20038;-74
2021/01/12 05:36:53;;;;;;;9.13;5.72;;;-6.50;70.00;;;;;;5164727;28;20165;-75
2021/01/12 05:39:25;;;;;;;7.20;5.60;;;-6.50;69.90;;;;;;5164788;28;20044;-76
2021/01/12 05:42:04;;;;;;;8.73;5.63;;;-6.50;70.00;;;;;;5163799;28;20046;-76
2021/01/12 05:44:40;;;;;;;8.10;5.70;;;-6.40;69.70;;;;;;5168789;28;20120;-75
2021/01/12 05:47:16;;;;;;;7.93;5.43;;;-6.40;69.80;;;;;;5169585;28;20101;-75
2021/01/12 05:49:51;;;;;;;8.00;6.00;;;-6.40;70.00;;;;;;5155984;28;20054;-75
2021/01/12 05:52:26;;;;;;;8.20;5.78;;;-6.40;70.00;;;;;;5148928;28;20058;-75
2021/01/12 05:55:04;;;;;;;6.97;5.50;;;-6.40;70.20;;;;;;5166099;28;20042;-75
2021/01/12 05:57:39;;;;;;;7.07;5.35;;;-6.40;70.30;;;;;;5160880;28;20046;-74
2021/01/12 06:00:11;;;;;;;8.70;6.60;;;-6.40;70.90;;;;;;5165375;28;20034;-74
2021/01/12 06:02:46;;;;;;;7.53;5.45;;;-6.40;71.20;;;;;;5167922;28;20123;-75
2021/01/12 06:05:17;;;;;;;8.38;5.50;;;-6.50;71.50;;;;;;5166536;28;20857;-76
2021/01/12 06:07:49;;;;;;;9.23;5.65;;;-6.40;72.20;;;;;;5165259;28;20054;-76
2021/01/12 06:10:23;;;;;;;10.93;6.78;;;-6.40;71.50;;;;;;5164807;28;20046;-75
2021/01/12 06:13:00;;;;;;;8.93;6.25;;;-6.40;70.70;;;;;;5163331;28;20104;-75
2021/01/12 06:15:39;;;;;;;8.90;6.15;;;-6.30;70.80;;;;;;5167571;28;20050;-74
2021/01/12 06:18:13;;;;;;;11.38;6.93;;;-6.30;70.70;;;;;;5166582;28;20034;-75
2021/01/12 06:20:55;;;;;;;10.70;6.93;;;-6.30;70.00;;;;;;5165314;28;20101;-76
2021/01/12 06:23:39;;;;;;;9.35;6.03;;;-6.20;70.30;;;;;;5165330;28;20050;-76
2021/01/12 06:26:13;;;;;;;8.43;5.93;;;-6.20;70.20;;;;;;5164067;28;20046;-76
2021/01/12 06:28:45;;;;;;;8.43;5.97;;;-6.20;70.20;;;;;;5147281;28;20050;-77
2021/01/12 06:31:16;;;;;;;7.97;6.07;;;-6.20;69.90;;;;;;5144967;28;20050;-76
2021/01/12 06:33:57;;;;;;;9.50;6.10;;;-6.20;69.90;;;;;;5163661;28;20038;-76
2021/01/12 06:36:32;;;;;;;8.45;6.00;;;-6.20;69.40;;;;;;5163416;28;20073;-76
2021/01/12 06:39:05;;;;;;;8.73;5.80;;;-6.20;69.80;;;;;;5153388;28;20121;-76
2021/01/12 06:41:38;;;;;;;11.40;7.32;;;-6.20;70.20;;;;;;5164279;28;20132;-76
2021/01/12 06:44:20;;;;;;;15.77;9.05;;;-6.20;70.20;;;;;;5149360;28;20041;-76
2021/01/12 06:46:53;;;;;;;12.63;7.65;;;-6.20;70.30;;;;;;5163648;28;20124;-76
2021/01/12 06:49:29;;;;;;;12.00;8.35;;;-6.20;70.50;;;;;;5167848;28;20049;-77
2021/01/12 06:52:07;;;;;;;10.98;7.95;;;-6.10;69.70;;;;;;5164634;28;20062;-76
2021/01/12 06:54:43;;;;;;;8.07;5.75;;;-6.10;70.50;;;;;;5164806;28;20656;-76
2021/01/12 06:57:23;;;;;;;8.23;6.07;;;-6.10;69.90;;;;;;5146476;28;20165;-76
2021/01/12 06:59:55;;;;;;;9.85;6.20;;;-6.20;70.10;;;;;;5165734;28;20066;-76
2021/01/12 07:02:31;;;;;;;9.70;6.90;;;-6.20;69.70;;;;;;5162453;28;20058;-76
2021/01/12 07:05:06;;;;;;;12.70;10.45;;;-6.20;70.20;;;;;;5163231;28;20496;-77
2021/01/12 07:07:52;;;;;;;10.15;7.18;;;-6.10;70.60;;;;;;5162600;28;20558;-77
2021/01/12 07:10:24;;;;;;;10.57;7.38;;;-6.10;71.00;;;;;;5164952;28;20042;-76
2021/01/12 07:12:55;;;;;;;10.88;7.63;;;-6.00;71.40;;;;;;5153508;28;20127;-76
2021/01/12 07:15:27;;;;;;;10.02;7.22;;;-6.00;71.50;;;;;;5160473;28;20153;-75
2021/01/12 07:17:58;;;;;;;10.20;7.90;;;-5.90;71.20;;;;;;5165606;28;20531;-76
2021/01/12 07:20:30;;;;;;;11.20;7.55;;;-5.90;71.10;;;;;;5147808;28;20050;-76
2021/01/12 07:23:10;;;;;;;11.52;8.20;;;-5.80;70.40;;;;;;5164700;28;20097;-76
2021/01/12 07:25:44;;;;;;;12.07;8.07;;;-5.80;70.00;;;;;;5165053;28;20046;-76
2021/01/12 07:28:22;;;;;;;13.63;8.07;;;-5.80;69.80;;;;;;5165312;28;20045;-76
2021/01/12 07:30:56;;;;;;;12.77;8.15;;;-5.80;69.90;;;;;;5149026;28;20444;-76
2021/01/12 07:33:29;;;;;;;11.77;7.90;;;-5.80;69.80;;;;;;5163883;28;20038;-76
2021/01/12 07:36:01;;;;;;;12.38;7.82;;;-5.70;70.00;;;;;;5163591;28;20590;-77
2021/01/12 07:38:32;;;;;;;13.18;8.40;;;-5.70;69.90;;;;;;5149237;28;20057;-76
2021/01/12 07:41:04;;;;;;;11.93;8.07;;;-5.70;69.50;;;;;;5162233;28;20091;-76
2021/01/12 07:43:36;;;;;;;11.13;8.20;;;-5.70;69.60;;;;;;5168328;28;20042;-76
2021/01/12 07:46:07;;;;;;;13.25;8.15;;;-5.60;69.40;;;;;;5165173;28;20246;-76
2021/01/12 07:48:39;;;;;;;13.20;8.20;;;-5.60;69.00;;;;;;5164104;28;21065;-76
2021/01/12 07:51:11;;;;;;;14.10;8.05;;;-5.60;69.10;;;;;;5165351;28;20538;-75
2021/01/12 07:53:43;;;;;;;12.10;8.20;;;-5.50;69.30;;;;;;5152450;28;20093;-75
2021/01/12 07:56:14;;;;;;;13.20;8.27;;;-5.50;69.00;;;;;;5149522;28;20432;-74
2021/01/12 07:58:47;;;;;;;11.02;7.93;;;-5.50;68.40;;;;;;5163569;28;20054;-74
2021/01/12 08:01:26;;;;;;;10.63;7.05;;;-5.60;69.10;;;;;;5145563;28;20566;-75
2021/01/12 08:03:58;;;;;;;10.18;7.70;;;-5.60;69.00;;;;;;5165908;28;20050;-74
2021/01/12 08:06:48;;;;;;;9.05;6.95;;;-5.50;68.70;;;;;;5167392;28;20058;-75
2021/01/12 08:09:20;;;;;;;;;;;-5.40;67.90;;;;;;5162845;28;20052;-74
2021/01/12 08:12:05;;;;;;;8.60;6.85;;;-5.40;68.50;;;;;;5163113;28;20557;-75
2021/01/12 08:14:36;;;;;;;9.40;6.75;;;-5.30;68.00;;;;;;5162574;28;20057;-74
2021/01/12 08:17:08;;;;;;;9.93;7.30;;;-5.20;66.80;;;;;;5160769;28;20147;-74
2021/01/12 08:19:41;;;;;;;10.55;7.07;;;-5.10;67.90;;;;;;5162178;28;20050;-76
2021/01/12 08:22:16;;;;;;;9.40;6.90;;;-5.10;66.70;;;;;;5161582;28;20066;-73
2021/01/12 08:24:48;;;;;;;9.35;6.82;;;-4.90;68.00;;;;;;5151296;28;20054;-75
2021/01/12 08:27:24;;;;;;;8.70;6.22;;;-4.80;68.10;;;;;;5166558;28;20507;-75
2021/01/12 08:30:08;;;;;;;11.40;7.10;;;-4.70;67.10;;;;;;5168100;28;20609;-74
2021/01/12 08:32:45;;;;;;;11.35;8.05;;;-4.50;67.10;;;;;;5162226;28;20054;-74
2021/01/12 08:35:17;;;;;;;10.32;7.90;;;-4.30;66.50;;;;;;5162101;28;20066;-76
2021/01/12 08:37:49;;;;;;;9.13;6.30;;;-4.20;65.90;;;;;;5162148;28;20046;-74
2021/01/12 08:40:21;;;;;;;9.20;6.88;;;-4.10;66.60;;;;;;5161722;28;20034;-75
2021/01/12 08:42:53;;;;;;;6.72;6.00;;;-4.00;64.10;;;;;;5164650;28;20553;-75
2021/01/12 08:45:25;;;;;;;11.70;8.20;;;-4.00;63.80;;;;;;5160626;28;20053;-73
2021/01/12 08:48:15;;;;;;;8.38;6.93;;;-3.90;63.30;;;;;;5163486;28;20121;-75
2021/01/12 08:50:47;;;;;;;6.78;6.07;;;-3.80;62.00;;;;;;5144521;28;20049;-75
2021/01/12 08:53:29;;;;;;;9.52;7.60;;;-3.60;61.30;;;;;;5163483;28;20038;-74
2021/01/12 08:56:08;;;;;;;8.57;7.68;;;-3.50;63.00;;;;;;5164114;28;20050;-74
2021/01/12 08:58:40;;;;;;;8.98;7.72;;;-3.50;60.90;;;;;;5159208;28;20054;-75
2021/01/12 09:01:14;;;;;;;14.50;10.10;;;-3.40;62.40;;;;;;5164317;28;20048;-75
2021/01/12 09:03:47;;;;;;;10.18;8.07;;;-3.30;62.90;;;;;;5161281;28;20120;-73
2021/01/12 09:06:19;;;;;;;7.90;6.93;;;-3.20;63.40;;;;;;5161203;28;20137;-74
2021/01/12 09:08:51;;;;;;;9.32;7.80;;;-3.10;59.10;;;;;;5163480;28;20069;-74
2021/01/12 09:11:22;;;;;;;8.15;7.05;;;-3.00;58.50;;;;;;5161815;28;20546;-74
2021/01/12 09:13:54;;;;;;;7.68;6.97;;;-2.90;58.90;;;;;;5166233;28;20107;-74
2021/01/12 09:16:25;;;;;;;15.48;9.75;;;-2.80;59.30;;;;;;5163708;28;20673;-73
2021/01/12 09:18:57;;;;;;;10.88;7.90;;;-2.70;58.80;;;;;;5160500;28;20046;-75
2021/01/12 09:21:28;;;;;;;8.65;7.75;;;-2.60;58.40;;;;;;5163102;28;20104;-71
2021/01/12 09:24:00;;;;;;;9.27;7.13;;;-2.50;57.20;;;;;;5147111;28;20189;-72
2021/01/12 09:26:34;;;;;;;7.93;7.13;;;-2.40;58.80;;;;;;5153058;28;20421;-73
2021/01/12 09:29:05;;;;;;;14.10;10.32;;;-2.30;59.00;;;;;;5160595;28;20424;-75
2021/01/12 09:31:48;;;;;;;20.52;14.15;;;-2.20;62.20;;;;;;5165796;28;20050;-73
2021/01/12 09:34:23;;;;;;;20.23;13.32;;;-2.20;61.70;;;;;;5164535;28;20049;-74
2021/01/12 09:36:54;;;;;;;19.42;12.40;;;-2.10;61.50;;;;;;5166333;28;20096;-73
2021/01/12 09:39:27;;;;;;;9.30;7.85;;;-2.00;61.70;;;;;;5153904;28;20057;-73
2021/01/12 09:41:58;;;;;;;9.43;7.00;;;-1.90;60.50;;;;;;5167747;28;20069;-73
2021/01/12 09:44:31;;;;;;;7.70;7.00;;;-1.90;59.40;;;;;;5164807;28;20046;-73
2021/01/12 09:47:03;;;;;;;7.53;6.80;;;-1.80;59.50;;;;;;5165522;28;20061;-74
2021/01/12 09:49:34;;;;;;;7.30;6.60;;;-1.70;59.50;;;;;;5166333;28;20742;-75
2021/01/12 09:52:06;;;;;;;8.45;6.88;;;-1.60;58.80;;;;;;5162703;28;20086;-75
2021/01/12 09:54:45;;;;;;;7.70;7.00;;;-1.50;56.10;;;;;;5152771;28;20065;-75
2021/01/12 09:57:16;;;;;;;14.00;9.18;;;-1.40;56.50;;;;;;5166993;28;20050;-73
2021/01/12 09:59:48;;;;;;;13.98;9.18;;;-1.30;59.50;;;;;;5170415;28;20033;-75
2021/01/12 10:02:19;;;;;;;12.02;9.52;;;-1.20;56.50;;;;;;5165930;28;20050;-75
2021/01/12 10:04:51;;;;;;;28.60;14.48;;;-1.10;57.80;;;;;;5167971;28;20475;-76
2021/01/12 10:07:22;;;;;;;12.63;9.52;;;-1.10;59.10;;;;;;5132870;28;20050;-72
2021/01/12 10:09:54;;;;;;;14.68;9.70;;;-1.00;58.30;;;;;;5167621;28;20116;-72
2021/01/12 10:12:25;;;;;;;10.50;8.82;;;-0.90;60.80;;;;;;5165984;28;20054;-72
2021/01/12 10:14:57;;;;;;;7.10;6.50;;;-0.80;59.10;;;;;;5166111;28;20100;-74
2021/01/12 10:17:28;;;;;;;7.65;6.95;;;-0.70;66.20;;;;;;5166506;28;20038;-73
2021/01/12 10:19:59;;;;;;;7.80;7.03;;;-0.60;67.60;;;;;;5169453;28;20097;-72
2021/01/12 10:22:31;;;;;;;7.78;7.07;;;-0.50;69.80;;;;;;5153492;28;20048;-71
2021/01/12 10:25:04;;;;;;;7.97;7.30;;;-0.40;70.40;;;;;;5170297;28;20049;-73
2021/01/12 10:27:41;;;;;;;7.55;6.95;;;-0.40;71.20;;;;;;5169955;28;20111;-72
2021/01/12 10:30:13;;;;;;;7.97;7.30;;;-0.30;72.20;;;;;;5167834;28;20049;-72
2021/01/12 10:32:49;;;;;;;8.57;7.88;;;-0.20;72.20;;;;;;5168619;28;20577;-72
2021/01/12 10:35:20;;;;;;;8.18;7.50;;;-0.20;72.90;;;;;;5166991;28;20073;-71
2021/01/12 10:37:52;;;;;;;8.55;7.85;;;-0.20;74.00;;;;;;5166700;28;20040;-72
2021/01/12 10:40:24;;;;;;;8.43;7.72;;;-0.20;75.00;;;;;;5164861;28;20054;-73
2021/01/12 10:42:55;;;;;;;8.38;7.68;;;-0.20;75.00;;;;;;5165613;28;20062;-71
2021/01/12 10:45:27;;;;;;;8.65;7.95;;;-0.20;74.80;;;;;;5166511;28;20054;-71
2021/01/12 10:47:59;;;;;;;8.82;8.02;;;-0.20;75.10;;;;;;5153444;28;20045;-72
2021/01/12 10:50:31;;;;;;;8.07;7.38;;;-0.10;75.90;;;;;;5165001;28;20050;-72
2021/01/12 10:53:02;;;;;;;8.43;7.72;;;-0.10;74.80;;;;;;5150188;28;20041;-72
2021/01/12 10:55:34;;;;;;;8.38;7.68;;;-0.10;74.90;;;;;;5164272;28;20085;-73
2021/01/12 10:58:05;;;;;;;8.82;8.07;;;-0.10;74.10;;;;;;5163377;28;20122;-73
2021/01/12 11:00:37;;;;;;;8.50;7.80;;;0.00;73.80;;;;;;5167461;28;20597;-73
2021/01/12 11:03:09;;;;;;;8.68;7.97;;;0.00;74.60;;;;;;5166679;28;20149;-72
2021/01/12 11:05:43;;;;;;;8.43;7.50;;;0.00;74.70;;;;;;5165045;28;20101;-71
2021/01/12 11:08:15;;;;;;;8.40;7.70;;;0.00;75.10;;;;;;5169950;28;20043;-72
2021/01/12 11:10:47;;;;;;;8.80;8.10;;;0.10;74.60;;;;;;5165841;28;20576;-73
2021/01/12 11:13:18;;;;;;;10.38;9.48;;;0.10;74.60;;;;;;5148246;28;20499;-75
2021/01/12 11:15:50;;;;;;;8.68;7.97;;;0.10;75.20;;;;;;5152422;28;20956;-73
2021/01/12 11:18:21;;;;;;;8.55;7.82;;;0.20;75.10;;;;;;5161361;28;20532;-72
2021/01/12 11:20:56;;;;;;;8.95;8.25;;;0.20;75.50;;;;;;5151455;28;20117;-71
2021/01/12 11:23:28;;;;;;;8.60;7.88;;;0.10;76.20;;;;;;5171166;28;20038;-71
2021/01/12 11:26:00;;;;;;;8.57;7.80;;;0.20;76.40;;;;;;5169862;28;20089;-70
2021/01/12 11:28:32;;;;;;;8.38;7.68;;;0.20;77.00;;;;;;5163685;28;20161;-71
2021/01/12 11:31:03;;;;;;;8.98;8.27;;;0.20;77.20;;;;;;5166765;28;20050;-72
2021/01/12 11:33:35;;;;;;;9.77;8.88;;;0.30;77.00;;;;;;5166406;28;20159;-74
2021/01/12 11:36:07;;;;;;;9.80;9.00;;;0.40;77.70;;;;;;5165835;28;20078;-71
2021/01/12 11:38:43;;;;;;;9.40;8.60;;;0.40;77.60;;;;;;5163407;28;20069;-71
2021/01/12 11:41:14;;;;;;;9.38;8.57;;;0.30;78.10;;;;;;5165387;28;20386;-72
2021/01/12 11:43:46;;;;;;;9.07;8.38;;;0.30;78.50;;;;;;5163402;28;20041;-72
2021/01/12 11:46:29;;;;;;;9.50;8.70;;;0.40;78.30;;;;;;5163605;28;20105;-72
2021/01/12 11:49:01;;;;;;;9.55;8.82;;;0.40;78.20;;;;;;5165230;28;20070;-71
2021/01/12 11:51:46;;;;;;;9.57;8.88;;;0.40;78.80;;;;;;5165640;28;20123;-72
2021/01/12 11:54:18;;;;;;;9.70;9.00;;;0.40;78.80;;;;;;5165117;28;20061;-72
2021/01/12 11:56:55;;;;;;;9.27;8.57;;;0.50;78.80;;;;;;5165207;28;20041;-72
2021/01/12 11:59:27;;;;;;;9.25;8.55;;;0.50;79.10;;;;;;5167045;28;20050;-72
2021/01/12 12:01:59;;;;;;;9.02;8.32;;;0.50;79.00;;;;;;5150397;28;20053;-71
2021/01/12 12:04:31;;;;;;;9.40;8.70;;;0.60;79.20;;;;;;5156192;28;20065;-72
2021/01/12 12:07:03;;;;;;;9.70;9.00;;;0.60;78.40;;;;;;5163147;28;20042;-72
2021/01/12 12:09:35;;;;;;;9.40;8.52;;;0.60;77.40;;;;;;5148974;28;20037;-72
2021/01/12 12:12:06;;;;;;;9.02;8.32;;;0.60;75.90;;;;;;5165868;28;20701;-71
2021/01/12 12:14:38;;;;;;;9.55;8.82;;;0.70;79.10;;;;;;5163958;28;20245;-72
2021/01/12 12:17:10;;;;;;;9.77;8.98;;;0.70;78.90;;;;;;5161547;28;20720;-72
2021/01/12 12:19:41;;;;;;;9.57;8.77;;;0.80;79.20;;;;;;5160766;28;20046;-71
2021/01/12 12:22:15;;;;;;;9.80;9.00;;;0.90;79.50;;;;;;5163154;28;20049;-71
2021/01/12 12:24:46;;;;;;;15.73;13.52;;;0.90;79.50;;;;;;5165620;28;20061;-72
2021/01/12 12:27:19;;;;;;;14.10;12.70;;;0.90;80.70;;;;;;5154739;28;20054;-73
2021/01/12 12:29:51;;;;;;;10.80;9.90;;;0.90;81.40;;;;;;5169163;28;20127;-73
2021/01/12 12:32:24;;;;;;;11.13;10.13;;;1.00;81.40;;;;;;5164182;28;20144;-73
2021/01/12 12:34:55;;;;;;;11.40;10.40;;;1.00;80.40;;;;;;5164768;28;20443;-74
2021/01/12 12:37:27;;;;;;;10.50;9.65;;;1.10;80.00;;;;;;5163505;28;20160;-74
2021/01/12 12:39:59;;;;;;;11.45;10.55;;;1.20;80.00;;;;;;5138340;28;20035;-71
2021/01/12 12:42:31;;;;;;;11.32;10.23;;;1.20;80.40;;;;;;5166886;28;20132;-72
2021/01/12 12:45:02;;;;;;;11.07;10.18;;;1.20;80.30;;;;;;5146516;28;20108;-72
2021/01/12 12:47:34;;;;;;;14.98;13.48;;;1.20;79.80;;;;;;5166671;28;20074;-73
2021/01/12 12:50:06;;;;;;;12.73;11.60;;;1.20;81.10;;;;;;5162752;28;20121;-73
2021/01/12 12:52:38;;;;;;;12.27;11.27;;;1.10;82.10;;;;;;5164110;28;20747;-73
2021/01/12 12:55:11;;;;;;;11.98;10.98;;;1.00;82.90;;;;;;5161526;28;20054;-72
2021/01/12 12:57:42;;;;;;;13.38;12.18;;;1.00;83.00;;;;;;5162294;28;20135;-72
2021/01/12 13:00:16;;;;;;;12.65;11.65;;;1.00;82.90;;;;;;5163982;28;20050;-72
2021/01/12 13:02:48;;;;;;;12.45;11.45;;;1.00;83.00;;;;;;5162729;28;20057;-73
2021/01/12 13:05:20;;;;;;;12.23;11.23;;;1.10;82.00;;;;;;5165185;28;20049;-75
2021/01/12 13:07:52;;;;;;;14.05;12.85;;;1.10;81.90;;;;;;5170202;28;20132;-72
2021/01/12 13:10:24;;;;;;;16.67;15.07;;;1.20;81.80;;;;;;5147333;28;20204;-72
2021/01/12 13:12:55;;;;;;;14.10;12.80;;;1.30;81.40;;;;;;5166181;28;20124;-74
2021/01/12 13:15:28;;;;;;;13.85;12.75;;;1.30;82.00;;;;;;5169146;28;20053;-72